createdAt,value
2019-03-21T00:01:11.835Z,7.86
2019-03-21T00:03:46.706Z,7.89
2019-03-21T00:06:19.789Z,7.83
2019-03-21T00:08:51.447Z,7.80
2019-03-21T00:11:59.847Z,7.90
2019-03-21T00:15:16.329Z,7.82
2019-03-21T00:17:55.687Z,7.78
2019-03-21T00:20:30.351Z,7.71
2019-03-21T00:23:01.736Z,7.70
2019-03-21T00:25:34.029Z,7.73
2019-03-21T00:28:06.758Z,7.77
2019-03-21T00:30:38.918Z,7.81
2019-03-21T00:33:10.276Z,7.79
2019-03-21T00:35:41.664Z,7.80
2019-03-21T00:38:16.373Z,7.82
2019-03-21T00:40:47.763Z,7.85
2019-03-21T00:43:19.191Z,7.81
2019-03-21T00:45:50.982Z,7.78
2019-03-21T00:48:31.723Z,7.82
2019-03-21T00:51:02.668Z,7.82
2019-03-21T00:53:36.583Z,7.79
2019-03-21T00:56:06.633Z,7.85
2019-03-21T00:58:38.003Z,7.83
2019-03-21T01:01:13.968Z,7.84
2019-03-21T01:03:45.915Z,7.80
2019-03-21T01:06:24.504Z,7.83
2019-03-21T01:08:55.896Z,7.76
2019-03-21T01:11:27.570Z,7.80
2019-03-21T01:13:59.053Z,7.75
2019-03-21T01:16:30.281Z,7.77
2019-03-21T01:19:01.298Z,7.77
2019-03-21T01:21:33.716Z,7.72
2019-03-21T01:24:04.550Z,7.69
2019-03-21T01:26:36.690Z,7.70
2019-03-21T01:29:09.963Z,7.69
2019-03-21T01:31:44.582Z,7.71
2019-03-21T01:34:16.487Z,7.64
2019-03-21T01:36:48.312Z,7.65
2019-03-21T01:39:19.134Z,7.66
2019-03-21T01:42:09.212Z,7.68
2019-03-21T01:44:42.940Z,7.66
2019-03-21T01:47:15.160Z,7.63
2019-03-21T01:49:46.135Z,7.61
2019-03-21T01:52:17.204Z,7.63
2019-03-21T01:54:48.654Z,7.62
2019-03-21T01:57:20.218Z,7.63
2019-03-21T01:59:52.556Z,7.69
2019-03-21T02:02:24.861Z,7.70
2019-03-21T02:04:57.385Z,7.72
2019-03-21T02:07:28.722Z,7.71
2019-03-21T02:09:59.808Z,7.67
2019-03-21T02:12:30.918Z,7.67
2019-03-21T02:15:02.393Z,7.72
2019-03-21T02:17:36.132Z,7.74
2019-03-21T02:20:08.110Z,7.67
2019-03-21T02:22:40.917Z,7.71
2019-03-21T02:25:18.150Z,7.63
2019-03-21T02:27:50.601Z,7.63
2019-03-21T02:30:26.799Z,7.53
2019-03-21T02:33:07.836Z,7.47
2019-03-21T02:35:39.318Z,7.38
2019-03-21T02:38:10.395Z,7.27
2019-03-21T02:40:43.554Z,7.24
2019-03-21T02:43:15.773Z,7.09
2019-03-21T02:45:49.345Z,6.95
2019-03-21T02:48:20.432Z,6.85
2019-03-21T02:50:52.400Z,6.76
2019-03-21T02:53:23.356Z,6.68
2019-03-21T02:55:54.617Z,6.56
2019-03-21T02:58:26.237Z,6.34
2019-03-21T03:00:59.656Z,6.27
2019-03-21T03:03:30.589Z,6.25
2019-03-21T03:06:01.355Z,6.17
2019-03-21T03:08:33.022Z,6.11
2019-03-21T03:11:04.640Z,6.05
2019-03-21T03:13:35.635Z,5.96
2019-03-21T03:16:06.554Z,5.85
2019-03-21T03:18:39.140Z,5.78
2019-03-21T03:21:10.904Z,5.73
2019-03-21T03:23:41.850Z,5.69
2019-03-21T03:26:12.571Z,5.55
2019-03-21T03:28:44.705Z,5.40
2019-03-21T03:31:16.605Z,5.35
2019-03-21T03:33:50.476Z,5.28
2019-03-21T03:36:24.163Z,5.19
2019-03-21T03:38:57.376Z,5.13
2019-03-21T03:41:29.428Z,5.03
2019-03-21T03:44:01.030Z,4.97
2019-03-21T03:46:35.986Z,4.93
2019-03-21T03:49:08.529Z,4.89
2019-03-21T03:51:40.162Z,4.85
2019-03-21T03:54:11.512Z,4.80
2019-03-21T03:56:42.492Z,4.74
2019-03-21T03:59:14.051Z,4.71
2019-03-21T04:01:45.358Z,4.62
2019-03-21T04:04:21.772Z,4.52
2019-03-21T04:07:03.195Z,4.51
2019-03-21T04:09:43.622Z,4.48
2019-03-21T04:12:23.296Z,4.41
2019-03-21T04:14:59.435Z,4.33
2019-03-21T04:17:33.278Z,4.31
2019-03-21T04:20:06.148Z,4.27
2019-03-21T04:22:39.955Z,4.22
2019-03-21T04:25:13.809Z,4.19
2019-03-21T04:27:45.722Z,4.16
2019-03-21T04:30:17.136Z,4.11
2019-03-21T04:32:51.677Z,4.08
2019-03-21T04:35:22.428Z,4.08
2019-03-21T04:37:55.710Z,4.06
2019-03-21T04:40:27.045Z,4.03
2019-03-21T04:42:58.691Z,4.01
2019-03-21T04:45:30.708Z,4.02
2019-03-21T04:48:08.318Z,3.99
2019-03-21T04:50:39.299Z,3.93
2019-03-21T04:53:10.866Z,3.88
2019-03-21T04:55:45.465Z,3.85
2019-03-21T04:58:16.118Z,3.84
2019-03-21T05:00:53.736Z,3.82
2019-03-21T05:03:33.116Z,3.84
2019-03-21T05:06:04.432Z,3.84
2019-03-21T05:08:37.056Z,3.83
2019-03-21T05:11:07.926Z,3.81
2019-03-21T05:13:40.924Z,3.85
2019-03-21T05:16:44.737Z,3.86
2019-03-21T05:19:15.929Z,3.91
2019-03-21T05:21:56.095Z,3.91
2019-03-21T05:24:26.985Z,3.97
2019-03-21T05:27:00.264Z,4.06
2019-03-21T05:29:31.348Z,4.24
2019-03-21T05:32:03.777Z,4.73
2019-03-21T05:34:35.030Z,5.25
2019-03-21T05:37:06.445Z,5.49
2019-03-21T05:39:40.505Z,5.92
2019-03-21T05:42:17.000Z,6.25
2019-03-21T05:44:50.009Z,6.61
2019-03-21T05:47:23.851Z,6.89
2019-03-21T05:49:56.515Z,7.34
2019-03-21T05:52:32.814Z,7.89
2019-03-21T05:55:03.561Z,8.51
2019-03-21T05:57:36.523Z,8.97
2019-03-21T06:00:10.903Z,9.22
2019-03-21T06:02:41.909Z,9.79
2019-03-21T06:05:12.932Z,10.42
2019-03-21T06:08:04.278Z,11.11
2019-03-21T06:10:42.288Z,11.75
2019-03-21T06:13:19.295Z,11.93
2019-03-21T06:15:50.213Z,12.05
2019-03-21T06:18:42.230Z,12.23
2019-03-21T06:21:36.597Z,12.61
2019-03-21T06:24:44.915Z,12.98
2019-03-21T06:27:42.847Z,13.35
2019-03-21T06:30:14.208Z,13.97
2019-03-21T06:32:46.785Z,14.29
2019-03-21T06:35:25.825Z,14.64
2019-03-21T06:38:08.270Z,15.02
2019-03-21T06:40:41.167Z,14.91
2019-03-21T06:43:12.133Z,15.38
2019-03-21T06:45:48.221Z,15.59
2019-03-21T06:48:17.067Z,16.13
2019-03-21T06:50:48.828Z,16.20
2019-03-21T06:53:20.350Z,16.07
2019-03-21T06:55:52.503Z,16.33
2019-03-21T07:02:15.968Z,16.88
2019-03-21T07:05:26.570Z,17.14
2019-03-21T07:08:00.752Z,17.29
2019-03-21T07:10:31.690Z,17.05
2019-03-21T07:13:02.706Z,16.82
2019-03-21T07:15:34.098Z,16.91
2019-03-21T07:18:05.045Z,17.28
2019-03-21T07:20:36.115Z,17.91
2019-03-21T07:23:08.399Z,17.71
2019-03-21T07:25:42.830Z,17.95
2019-03-21T07:28:14.319Z,18.62
2019-03-21T07:30:45.271Z,18.49
2019-03-21T07:33:16.407Z,18.34
2019-03-21T07:35:47.701Z,17.79
2019-03-21T07:38:18.701Z,18.14
2019-03-21T07:40:52.368Z,19.00
2019-03-21T07:43:23.735Z,19.45
2019-03-21T07:45:56.216Z,20.18
2019-03-21T07:48:27.534Z,20.29
2019-03-21T07:51:01.575Z,20.14
2019-03-21T07:53:49.484Z,20.98
2019-03-21T07:56:20.795Z,21.08
2019-03-21T07:58:54.401Z,21.33
2019-03-21T08:01:29.400Z,21.59
2019-03-21T08:04:03.137Z,21.35
2019-03-21T08:06:34.393Z,21.34
2019-03-21T08:09:08.649Z,21.61
2019-03-21T08:11:40.391Z,21.99
2019-03-21T08:14:13.180Z,21.87
2019-03-21T08:16:45.637Z,22.27
2019-03-21T08:19:18.044Z,22.44
2019-03-21T08:21:53.787Z,22.58
2019-03-21T08:24:25.319Z,23.14
2019-03-21T08:26:58.132Z,22.27
2019-03-21T08:29:31.200Z,20.85
2019-03-21T08:32:06.533Z,21.61
2019-03-21T08:34:37.738Z,21.73
2019-03-21T08:37:09.720Z,21.80
2019-03-21T08:39:40.795Z,21.71
2019-03-21T08:46:03.746Z,22.50
2019-03-21T08:48:35.016Z,23.09
2019-03-21T08:51:08.576Z,24.03
2019-03-21T08:53:39.029Z,25.00
2019-03-21T08:56:10.595Z,24.38
2019-03-21T08:58:41.745Z,24.40
2019-03-21T09:01:17.370Z,22.69
2019-03-21T09:03:54.795Z,22.93
2019-03-21T09:06:28.446Z,23.61
2019-03-21T09:08:59.960Z,22.89
2019-03-21T09:11:33.377Z,22.41
2019-03-21T09:14:05.333Z,22.33
2019-03-21T09:16:37.003Z,23.09
2019-03-21T09:19:08.613Z,22.94
2019-03-21T09:21:46.626Z,23.65
2019-03-21T09:24:23.090Z,23.88
2019-03-21T09:27:10.750Z,23.83
2019-03-21T09:29:53.045Z,21.99
2019-03-21T09:37:13.490Z,23.63
2019-03-21T09:43:41.366Z,21.12
2019-03-21T09:46:14.829Z,21.72
2019-03-21T09:48:51.248Z,22.51
2019-03-21T09:51:38.512Z,23.12
2019-03-21T09:54:13.733Z,23.78
2019-03-21T09:56:45.495Z,23.39
2019-03-21T09:59:16.647Z,21.07
2019-03-21T10:01:47.623Z,22.10
2019-03-21T10:04:19.880Z,21.83
2019-03-21T10:06:51.938Z,21.39
2019-03-21T10:09:24.518Z,21.83
2019-03-21T10:11:58.150Z,21.71
2019-03-21T10:14:30.915Z,21.66
2019-03-21T10:17:02.517Z,22.35
2019-03-21T10:19:33.763Z,23.19
2019-03-21T10:22:06.864Z,21.78
2019-03-21T10:24:38.171Z,22.83
2019-03-21T10:27:11.164Z,23.21
2019-03-21T10:29:46.143Z,22.64
2019-03-21T10:32:18.069Z,20.84
2019-03-21T10:34:49.826Z,21.38
2019-03-21T10:37:23.121Z,21.94
2019-03-21T10:39:55.797Z,21.91
2019-03-21T10:42:27.152Z,22.23
2019-03-21T10:45:00.397Z,22.40
2019-03-21T10:47:32.745Z,22.88
2019-03-21T10:50:05.356Z,22.60
2019-03-21T10:52:37.061Z,21.97
2019-03-21T10:55:10.697Z,21.86
2019-03-21T10:57:42.419Z,21.74
2019-03-21T11:00:14.192Z,22.38
2019-03-21T11:02:46.239Z,22.84
2019-03-21T11:05:18.530Z,23.64
2019-03-21T11:07:50.072Z,23.23
2019-03-21T11:10:26.649Z,22.85
2019-03-21T11:12:58.056Z,22.97
2019-03-21T11:15:30.866Z,22.51
2019-03-21T11:18:04.129Z,22.11
2019-03-21T11:20:39.789Z,21.56
2019-03-21T11:23:11.734Z,21.41
2019-03-21T11:25:45.910Z,21.47
2019-03-21T11:28:17.869Z,22.01
2019-03-21T11:30:49.151Z,21.79
2019-03-21T11:33:20.206Z,22.73
2019-03-21T11:35:51.524Z,23.23
2019-03-21T11:38:23.252Z,23.33
2019-03-21T11:41:00.426Z,22.37
2019-03-21T11:43:32.966Z,21.19
2019-03-21T11:46:04.591Z,21.40
2019-03-21T11:48:45.528Z,21.86
2019-03-21T11:51:22.817Z,22.34
2019-03-21T11:53:54.732Z,22.11
2019-03-21T11:56:28.066Z,21.64
2019-03-21T11:59:06.101Z,22.27
2019-03-21T12:01:37.417Z,22.52
2019-03-21T12:04:09.164Z,23.09
2019-03-21T12:06:45.844Z,22.41
2019-03-21T12:09:18.111Z,21.39
2019-03-21T12:11:49.327Z,22.36
2019-03-21T12:14:21.006Z,22.65
2019-03-21T12:16:53.456Z,22.73
2019-03-21T12:19:24.542Z,22.35
2019-03-21T12:22:04.871Z,22.26
2019-03-21T12:24:34.362Z,21.87
2019-03-21T12:27:09.422Z,21.92
2019-03-21T12:29:45.549Z,23.12
2019-03-21T12:32:25.150Z,23.50
2019-03-21T12:34:56.209Z,21.75
2019-03-21T12:37:28.436Z,22.52
2019-03-21T12:40:00.480Z,23.27
2019-03-21T12:42:34.415Z,23.86
2019-03-21T12:45:07.288Z,24.10
2019-03-21T12:47:39.544Z,24.27
2019-03-21T12:50:11.967Z,24.11
2019-03-21T12:52:43.117Z,24.10
2019-03-21T12:55:14.200Z,24.15
2019-03-21T12:57:46.367Z,23.55
2019-03-21T13:00:19.342Z,23.50
2019-03-21T13:02:50.634Z,22.85
2019-03-21T13:05:29.133Z,22.66
2019-03-21T13:08:01.125Z,22.91
2019-03-21T13:10:33.960Z,22.71
2019-03-21T13:13:12.726Z,22.68
2019-03-21T13:15:47.145Z,23.05
2019-03-21T13:18:18.924Z,23.21
2019-03-21T13:20:50.713Z,22.86
2019-03-21T13:23:22.117Z,21.83
2019-03-21T13:25:57.274Z,21.53
2019-03-21T13:28:32.947Z,22.04
2019-03-21T13:31:05.446Z,22.00
2019-03-21T13:33:41.535Z,20.97
2019-03-21T13:38:47.606Z,22.20
2019-03-21T13:41:19.445Z,22.21
2019-03-21T13:43:50.857Z,22.91
2019-03-21T13:46:21.855Z,22.31
2019-03-21T13:48:53.442Z,22.13
2019-03-21T13:51:24.674Z,21.86
2019-03-21T13:53:55.841Z,21.35
2019-03-21T13:56:37.578Z,22.19
2019-03-21T13:58:59.862Z,22.53
2019-03-21T14:01:35.058Z,21.90
2019-03-21T14:04:06.805Z,21.80
2019-03-21T14:06:39.155Z,22.01
2019-03-21T14:09:15.361Z,21.89
2019-03-21T14:11:50.972Z,21.10
2019-03-21T14:14:24.090Z,21.55
2019-03-21T14:16:55.465Z,21.60
2019-03-21T14:19:26.953Z,21.29
2019-03-21T14:21:58.350Z,21.58
2019-03-21T14:24:29.696Z,21.80
2019-03-21T14:27:00.842Z,21.89
2019-03-21T14:29:32.071Z,22.07
2019-03-21T14:32:03.452Z,22.09
2019-03-21T14:34:34.617Z,20.88
2019-03-21T14:37:06.060Z,20.75
2019-03-21T14:39:38.831Z,20.46
2019-03-21T14:42:10.297Z,20.43
2019-03-21T14:44:42.502Z,20.66
2019-03-21T14:47:15.234Z,20.91
2019-03-21T14:49:47.009Z,21.24
2019-03-21T14:52:18.768Z,21.17
2019-03-21T14:54:50.397Z,21.49
2019-03-21T14:57:22.354Z,20.99
2019-03-21T14:59:53.422Z,21.13
2019-03-21T15:02:27.369Z,21.45
2019-03-21T15:04:58.360Z,21.87
2019-03-21T15:07:39.907Z,21.76
2019-03-21T15:10:11.873Z,21.26
2019-03-21T15:12:45.767Z,21.49
2019-03-21T15:15:18.286Z,20.52
2019-03-21T15:17:49.302Z,19.72
2019-03-21T15:20:20.688Z,19.36
2019-03-21T15:22:52.551Z,19.72
2019-03-21T15:25:24.049Z,20.49
2019-03-21T15:27:55.428Z,20.74
2019-03-21T15:30:26.491Z,20.80
2019-03-21T15:32:57.406Z,20.41
2019-03-21T15:35:30.396Z,20.07
2019-03-21T15:38:02.128Z,20.25
2019-03-21T15:40:33.464Z,20.29
2019-03-21T15:43:06.599Z,20.28
2019-03-21T15:45:37.840Z,20.21
2019-03-21T15:48:09.065Z,19.80
2019-03-21T15:50:40.153Z,19.26
2019-03-21T15:53:15.292Z,19.31
2019-03-21T15:55:46.315Z,19.41
2019-03-21T15:58:17.265Z,19.44
2019-03-21T16:00:48.492Z,19.62
2019-03-21T16:03:19.576Z,19.74
2019-03-21T16:05:50.684Z,19.02
2019-03-21T16:08:22.398Z,18.89
2019-03-21T16:10:53.567Z,18.61
2019-03-21T16:13:24.889Z,18.79
2019-03-21T16:15:55.862Z,18.82
2019-03-21T16:18:27.608Z,18.78
2019-03-21T16:20:59.462Z,18.92
2019-03-21T16:23:33.943Z,18.80
2019-03-21T16:26:05.840Z,18.72
2019-03-21T16:28:37.359Z,18.66
2019-03-21T16:31:11.911Z,18.69
2019-03-21T16:33:44.637Z,18.66
2019-03-21T16:36:17.370Z,18.69
2019-03-21T16:39:00.022Z,18.68
2019-03-21T16:41:31.470Z,18.62
2019-03-21T16:44:03.124Z,18.32
2019-03-21T16:46:36.284Z,18.22
2019-03-21T16:49:10.348Z,18.16
2019-03-21T16:51:45.044Z,18.13
2019-03-21T16:54:19.055Z,18.09
2019-03-21T16:56:50.365Z,18.00
2019-03-21T16:59:23.833Z,17.94
2019-03-21T17:01:55.232Z,17.85
2019-03-21T17:04:26.150Z,17.74
2019-03-21T17:07:04.920Z,17.61
2019-03-21T17:09:36.959Z,17.48
2019-03-21T17:12:08.463Z,17.30
2019-03-21T17:14:39.547Z,17.06
2019-03-21T17:17:10.952Z,16.81
2019-03-21T17:19:43.844Z,16.57
2019-03-21T17:22:15.800Z,16.34
2019-03-21T17:24:47.383Z,16.08
2019-03-21T17:27:18.662Z,15.90
2019-03-21T17:29:50.709Z,15.74
2019-03-21T17:32:23.948Z,15.59
2019-03-21T17:34:55.750Z,15.42
2019-03-21T17:37:27.817Z,15.24
2019-03-21T17:39:58.930Z,15.10
2019-03-21T17:42:32.151Z,14.91
2019-03-21T17:45:03.273Z,14.71
2019-03-21T17:47:34.339Z,14.55
2019-03-21T17:50:05.588Z,14.38
2019-03-21T17:52:38.327Z,14.22
2019-03-21T17:55:10.163Z,14.07
2019-03-21T17:57:41.221Z,13.93
2019-03-21T18:00:14.539Z,13.81
2019-03-21T18:02:56.708Z,13.71
2019-03-21T18:05:30.011Z,13.59
2019-03-21T18:08:01.369Z,13.50
2019-03-21T18:10:34.940Z,13.39
2019-03-21T18:13:06.443Z,13.31
2019-03-21T18:15:37.865Z,13.21
2019-03-21T18:18:11.177Z,13.11
2019-03-21T18:20:42.856Z,13.05
2019-03-21T18:23:14.961Z,12.97
2019-03-21T18:25:48.193Z,12.88
2019-03-21T18:28:19.652Z,12.80
2019-03-21T18:30:51.665Z,12.77
2019-03-21T18:33:23.516Z,12.71
2019-03-21T18:35:57.853Z,12.67
2019-03-21T18:38:29.017Z,12.58
2019-03-21T18:41:10.806Z,12.45
2019-03-21T18:44:07.404Z,12.32
2019-03-21T18:46:39.559Z,12.21
2019-03-21T18:49:14.850Z,12.12
2019-03-21T18:51:46.127Z,12.07
2019-03-21T18:54:17.254Z,12.03
2019-03-21T18:56:50.864Z,11.98
2019-03-21T18:59:26.594Z,11.91
2019-03-21T19:01:59.177Z,11.84
2019-03-21T19:04:30.442Z,11.71
2019-03-21T19:07:03.122Z,11.64
2019-03-21T19:09:35.252Z,11.59
2019-03-21T19:12:06.862Z,11.58
2019-03-21T19:14:38.325Z,11.58
2019-03-21T19:17:10.378Z,11.54
2019-03-21T19:19:44.249Z,11.44
2019-03-21T19:22:16.134Z,11.31
2019-03-21T19:24:50.026Z,11.27
2019-03-21T19:27:21.488Z,11.25
2019-03-21T19:29:57.494Z,11.21
2019-03-21T19:32:28.850Z,11.17
2019-03-21T19:35:00.404Z,11.15
2019-03-21T19:37:34.883Z,11.11
2019-03-21T19:40:07.811Z,11.08
2019-03-21T19:42:39.722Z,11.05
2019-03-21T19:45:14.176Z,11.03
2019-03-21T19:47:45.654Z,10.99
2019-03-21T19:50:17.575Z,10.91
2019-03-21T19:52:59.995Z,10.80
2019-03-21T19:55:31.535Z,10.68
2019-03-21T19:58:03.410Z,10.56
2019-03-21T20:00:34.815Z,10.46
2019-03-21T20:03:06.045Z,10.40
2019-03-21T20:05:37.994Z,10.34
2019-03-21T20:08:09.204Z,10.27
2019-03-21T20:10:41.542Z,10.21
2019-03-21T20:13:12.701Z,10.08
2019-03-21T20:15:44.726Z,9.97
2019-03-21T20:18:15.824Z,9.91
2019-03-21T20:20:47.012Z,9.85
2019-03-21T20:23:18.789Z,9.75
2019-03-21T20:25:50.317Z,9.69
2019-03-21T20:28:22.089Z,9.67
2019-03-21T20:30:55.307Z,9.69
2019-03-21T20:33:26.904Z,9.66
2019-03-21T20:35:58.006Z,9.60
2019-03-21T20:38:29.529Z,9.53
2019-03-21T20:41:00.980Z,9.46
2019-03-21T20:43:33.763Z,9.42
2019-03-21T20:46:07.744Z,9.33
2019-03-21T20:48:36.406Z,9.21
2019-03-21T20:51:08.079Z,9.15
2019-03-21T20:53:40.062Z,9.14
2019-03-21T20:56:11.468Z,9.11
2019-03-21T20:58:44.256Z,9.05
2019-03-21T21:01:19.052Z,8.97
2019-03-21T21:03:54.654Z,8.95
2019-03-21T21:06:29.213Z,8.92
2019-03-21T21:09:00.202Z,8.91
2019-03-21T21:11:31.626Z,8.91
2019-03-21T21:14:02.933Z,8.91
2019-03-21T21:16:37.183Z,8.88
2019-03-21T21:19:12.182Z,8.86
2019-03-21T21:21:46.453Z,8.82
2019-03-21T21:24:19.095Z,8.79
2019-03-21T21:26:56.907Z,8.84
2019-03-21T21:29:32.073Z,8.85
2019-03-21T21:32:09.450Z,8.83
2019-03-21T21:34:41.627Z,8.78
2019-03-21T21:37:21.293Z,8.76
2019-03-21T21:39:55.050Z,8.75
2019-03-21T21:42:31.994Z,8.38
2019-03-21T21:45:11.745Z,8.18
2019-03-21T21:47:43.639Z,8.29
2019-03-21T21:50:15.963Z,8.24
2019-03-21T21:52:49.332Z,8.24
2019-03-21T21:55:20.847Z,8.23
2019-03-21T21:57:51.911Z,8.26
2019-03-21T22:00:25.092Z,8.23
2019-03-21T22:03:02.380Z,8.13
2019-03-21T22:05:40.204Z,8.10
2019-03-21T22:08:12.534Z,8.07
2019-03-21T22:10:44.093Z,8.02
2019-03-21T22:13:15.324Z,8.00
2019-03-21T22:15:48.805Z,7.99
2019-03-21T22:18:23.091Z,8.01
2019-03-21T22:20:54.705Z,7.99
2019-03-21T22:23:30.948Z,8.01
2019-03-21T22:26:01.911Z,8.01
2019-03-21T22:28:35.616Z,7.97
2019-03-21T22:31:07.349Z,7.92
2019-03-21T22:33:44.858Z,7.88
2019-03-21T22:36:15.917Z,7.89
2019-03-21T22:38:49.183Z,7.86
2019-03-21T22:41:22.782Z,7.83
2019-03-21T22:43:56.881Z,7.74
2019-03-21T22:46:28.524Z,7.65
2019-03-21T22:49:00.082Z,7.58
2019-03-21T22:51:39.732Z,7.58
2019-03-21T22:54:13.949Z,7.58
2019-03-21T22:56:45.334Z,7.56
2019-03-21T22:59:16.581Z,7.54
2019-03-21T23:01:50.318Z,7.47
2019-03-21T23:04:21.795Z,7.42
2019-03-21T23:06:53.472Z,7.38
2019-03-21T23:09:25.691Z,7.33
2019-03-21T23:11:59.574Z,7.30
2019-03-21T23:14:32.623Z,7.29
2019-03-21T23:17:05.523Z,7.31
2019-03-21T23:19:36.877Z,7.31
2019-03-21T23:22:08.781Z,7.24
2019-03-21T23:24:41.074Z,7.18
2019-03-21T23:27:13.179Z,7.16
2019-03-21T23:29:44.227Z,7.16
2019-03-21T23:32:16.531Z,7.12
2019-03-21T23:34:48.837Z,7.02
2019-03-21T23:37:20.335Z,7.00
2019-03-21T23:39:52.783Z,7.03
2019-03-21T23:42:26.927Z,7.05
2019-03-21T23:44:57.967Z,7.02
2019-03-21T23:47:29.101Z,6.95
2019-03-21T23:50:00.483Z,6.89
2019-03-21T23:52:33.837Z,6.86
2019-03-21T23:55:05.018Z,6.79
2019-03-21T23:57:40.203Z,6.74
